sensor_id;sensor_type;location;lat;lon;timestamp;temperature;humidity
31695;DHT22;18289;51.330;4.946;2022-10-16T00:01:18;13.70;99.90
31695;DHT22;18289;51.330;4.946;2022-10-16T00:03:47;13.70;99.90
31695;DHT22;18289;51.330;4.946;2022-10-16T00:06:18;13.70;99.90
31695;DHT22;18289;51.330;4.946;2022-10-16T00:08:44;13.70;99.90
31695;DHT22;18289;51.330;4.946;2022-10-16T00:11:33;13.70;99.90
31695;DHT22;18289;51.330;4.946;2022-10-16T00:14:04;13.70;99.90
31695;DHT22;18289;51.330;4.946;2022-10-16T00:16:31;13.70;99.90
31695;DHT22;18289;51.330;4.946;2022-10-16T00:18:57;13.60;99.90
31695;DHT22;18289;51.330;4.946;2022-10-16T00:21:25;13.60;99.90
31695;DHT22;18289;51.330;4.946;2022-10-16T00:23:54;13.60;99.90
31695;DHT22;18289;51.330;4.946;2022-10-16T00:26:20;13.60;99.90
31695;DHT22;18289;51.330;4.946;2022-10-16T00:28:52;13.60;99.90
31695;DHT22;18289;51.330;4.946;2022-10-16T00:31:20;13.50;99.90
31695;DHT22;18289;51.330;4.946;2022-10-16T00:33:49;13.50;99.90
31695;DHT22;18289;51.330;4.946;2022-10-16T00:36:20;13.50;99.90
31695;DHT22;18289;51.330;4.946;2022-10-16T00:38:49;13.40;99.90
31695;DHT22;18289;51.330;4.946;2022-10-16T00:41:16;13.40;99.90
31695;DHT22;18289;51.330;4.946;2022-10-16T00:43:50;13.40;99.90
31695;DHT22;18289;51.330;4.946;2022-10-16T00:49:11;13.30;99.90
31695;DHT22;18289;51.330;4.946;2022-10-16T00:54:14;13.40;99.90
31695;DHT22;18289;51.330;4.946;2022-10-16T00:56:41;13.40;99.90
31695;DHT22;18289;51.330;4.946;2022-10-16T00:59:15;13.40;99.90
31695;DHT22;18289;51.330;4.946;2022-10-16T01:01:41;13.30;99.90
31695;DHT22;18289;51.330;4.946;2022-10-16T01:04:07;13.30;99.90
31695;DHT22;18289;51.330;4.946;2022-10-16T01:07:04;13.30;99.90
31695;DHT22;18289;51.330;4.946;2022-10-16T01:09:59;13.20;99.90
31695;DHT22;18289;51.330;4.946;2022-10-16T01:12:50;13.30;99.90
31695;DHT22;18289;51.330;4.946;2022-10-16T01:15:27;13.20;99.90
31695;DHT22;18289;51.330;4.946;2022-10-16T01:18:25;13.30;99.90
31695;DHT22;18289;51.330;4.946;2022-10-16T01:21:04;13.40;99.90
31695;DHT22;18289;51.330;4.946;2022-10-16T01:28:55;13.60;99.90
31695;DHT22;18289;51.330;4.946;2022-10-16T01:31:26;13.70;99.90
31695;DHT22;18289;51.330;4.946;2022-10-16T01:34:02;13.80;99.90
31695;DHT22;18289;51.330;4.946;2022-10-16T01:36:36;13.80;99.90
31695;DHT22;18289;51.330;4.946;2022-10-16T01:39:03;13.90;99.90
31695;DHT22;18289;51.330;4.946;2022-10-16T01:41:37;13.80;99.90
31695;DHT22;18289;51.330;4.946;2022-10-16T01:44:10;13.80;99.90
31695;DHT22;18289;51.330;4.946;2022-10-16T01:46:43;13.80;99.90
31695;DHT22;18289;51.330;4.946;2022-10-16T01:49:10;13.80;99.90
31695;DHT22;18289;51.330;4.946;2022-10-16T01:51:37;13.70;99.90
31695;DHT22;18289;51.330;4.946;2022-10-16T01:54:06;13.60;99.90
31695;DHT22;18289;51.330;4.946;2022-10-16T01:56:34;13.50;99.90
31695;DHT22;18289;51.330;4.946;2022-10-16T01:59:07;13.50;99.90
31695;DHT22;18289;51.330;4.946;2022-10-16T02:01:38;13.50;99.90
31695;DHT22;18289;51.330;4.946;2022-10-16T02:04:12;13.40;99.90
31695;DHT22;18289;51.330;4.946;2022-10-16T02:06:39;13.40;99.90
31695;DHT22;18289;51.330;4.946;2022-10-16T02:09:04;13.40;99.90
31695;DHT22;18289;51.330;4.946;2022-10-16T02:11:30;13.30;99.90
31695;DHT22;18289;51.330;4.946;2022-10-16T02:14:02;13.30;99.90
31695;DHT22;18289;51.330;4.946;2022-10-16T02:16:43;13.30;99.90
31695;DHT22;18289;51.330;4.946;2022-10-16T02:19:10;13.30;99.90
31695;DHT22;18289;51.330;4.946;2022-10-16T02:21:58;13.30;99.90
31695;DHT22;18289;51.330;4.946;2022-10-16T02:29:32;13.20;99.90
31695;DHT22;18289;51.330;4.946;2022-10-16T02:32:03;13.20;99.90
31695;DHT22;18289;51.330;4.946;2022-10-16T02:34:31;13.20;99.90
31695;DHT22;18289;51.330;4.946;2022-10-16T02:36:59;13.20;99.90
31695;DHT22;18289;51.330;4.946;2022-10-16T02:39:27;13.10;99.90
31695;DHT22;18289;51.330;4.946;2022-10-16T02:41:53;13.10;99.90
31695;DHT22;18289;51.330;4.946;2022-10-16T02:44:19;13.00;99.90
31695;DHT22;18289;51.330;4.946;2022-10-16T02:46:44;13.00;99.90
31695;DHT22;18289;51.330;4.946;2022-10-16T02:49:10;13.00;99.90
31695;DHT22;18289;51.330;4.946;2022-10-16T02:51:36;13.00;99.90
31695;DHT22;18289;51.330;4.946;2022-10-16T02:54:02;13.00;99.90
31695;DHT22;18289;51.330;4.946;2022-10-16T02:56:28;13.00;99.90
31695;DHT22;18289;51.330;4.946;2022-10-16T02:58:55;12.90;99.90
31695;DHT22;18289;51.330;4.946;2022-10-16T03:01:21;13.00;99.90
31695;DHT22;18289;51.330;4.946;2022-10-16T03:03:46;12.90;99.90
31695;DHT22;18289;51.330;4.946;2022-10-16T03:06:12;12.90;99.90
31695;DHT22;18289;51.330;4.946;2022-10-16T03:08:38;12.90;99.90
31695;DHT22;18289;51.330;4.946;2022-10-16T03:11:03;12.90;99.90
31695;DHT22;18289;51.330;4.946;2022-10-16T03:13:29;12.90;99.90
31695;DHT22;18289;51.330;4.946;2022-10-16T03:15:55;13.00;99.90
31695;DHT22;18289;51.330;4.946;2022-10-16T03:18:20;13.00;99.90
31695;DHT22;18289;51.330;4.946;2022-10-16T03:20:46;13.00;99.90
31695;DHT22;18289;51.330;4.946;2022-10-16T03:23:12;13.00;99.90
31695;DHT22;18289;51.330;4.946;2022-10-16T03:25:37;13.10;99.90
31695;DHT22;18289;51.330;4.946;2022-10-16T03:28:03;13.00;99.90
31695;DHT22;18289;51.330;4.946;2022-10-16T03:30:29;13.10;99.90
31695;DHT22;18289;51.330;4.946;2022-10-16T03:32:54;13.00;99.90
31695;DHT22;18289;51.330;4.946;2022-10-16T03:35:24;13.10;99.90
31695;DHT22;18289;51.330;4.946;2022-10-16T03:37:50;13.10;99.90
31695;DHT22;18289;51.330;4.946;2022-10-16T03:40:16;13.10;99.90
31695;DHT22;18289;51.330;4.946;2022-10-16T03:42:42;13.20;99.90
31695;DHT22;18289;51.330;4.946;2022-10-16T03:45:09;13.20;99.90
31695;DHT22;18289;51.330;4.946;2022-10-16T03:47:35;13.20;99.90
31695;DHT22;18289;51.330;4.946;2022-10-16T03:50:00;13.20;99.90
31695;DHT22;18289;51.330;4.946;2022-10-16T03:52:27;13.20;99.90
31695;DHT22;18289;51.330;4.946;2022-10-16T03:54:52;13.20;99.90
31695;DHT22;18289;51.330;4.946;2022-10-16T03:57:18;13.20;99.90
31695;DHT22;18289;51.330;4.946;2022-10-16T03:59:44;13.20;99.90
31695;DHT22;18289;51.330;4.946;2022-10-16T04:02:13;13.30;99.90
31695;DHT22;18289;51.330;4.946;2022-10-16T04:04:38;13.20;99.90
31695;DHT22;18289;51.330;4.946;2022-10-16T04:07:04;13.30;99.90
31695;DHT22;18289;51.330;4.946;2022-10-16T04:09:30;13.30;99.90
31695;DHT22;18289;51.330;4.946;2022-10-16T04:11:56;13.30;99.90
31695;DHT22;18289;51.330;4.946;2022-10-16T04:14:21;13.40;99.90
31695;DHT22;18289;51.330;4.946;2022-10-16T04:16:47;13.30;99.90
31695;DHT22;18289;51.330;4.946;2022-10-16T04:19:13;13.30;99.90
31695;DHT22;18289;51.330;4.946;2022-10-16T04:21:38;13.30;99.90
31695;DHT22;18289;51.330;4.946;2022-10-16T04:24:04;13.40;99.90
31695;DHT22;18289;51.330;4.946;2022-10-16T04:26:31;13.30;99.90
31695;DHT22;18289;51.330;4.946;2022-10-16T04:28:57;13.40;99.90
31695;DHT22;18289;51.330;4.946;2022-10-16T04:31:22;13.30;99.90
31695;DHT22;18289;51.330;4.946;2022-10-16T04:33:48;13.30;99.90
31695;DHT22;18289;51.330;4.946;2022-10-16T04:36:14;13.30;99.90
31695;DHT22;18289;51.330;4.946;2022-10-16T04:38:40;13.20;99.90
31695;DHT22;18289;51.330;4.946;2022-10-16T04:41:06;13.20;99.90
31695;DHT22;18289;51.330;4.946;2022-10-16T04:43:33;13.20;99.90
31695;DHT22;18289;51.330;4.946;2022-10-16T04:45:58;13.10;99.90
31695;DHT22;18289;51.330;4.946;2022-10-16T04:48:24;13.10;99.90
31695;DHT22;18289;51.330;4.946;2022-10-16T04:50:50;13.20;99.90
31695;DHT22;18289;51.330;4.946;2022-10-16T04:53:16;13.20;99.90
31695;DHT22;18289;51.330;4.946;2022-10-16T04:55:42;13.20;99.90
31695;DHT22;18289;51.330;4.946;2022-10-16T04:58:08;13.10;99.90
31695;DHT22;18289;51.330;4.946;2022-10-16T05:00:34;13.10;99.90
31695;DHT22;18289;51.330;4.946;2022-10-16T05:03:00;13.10;99.90
31695;DHT22;18289;51.330;4.946;2022-10-16T05:05:27;13.00;99.90
31695;DHT22;18289;51.330;4.946;2022-10-16T05:07:53;13.00;99.90
31695;DHT22;18289;51.330;4.946;2022-10-16T05:10:19;13.00;99.90
31695;DHT22;18289;51.330;4.946;2022-10-16T05:12:46;13.00;99.90
31695;DHT22;18289;51.330;4.946;2022-10-16T05:15:12;13.00;99.90
31695;DHT22;18289;51.330;4.946;2022-10-16T05:17:37;12.90;99.90
31695;DHT22;18289;51.330;4.946;2022-10-16T05:20:04;13.00;99.90
31695;DHT22;18289;51.330;4.946;2022-10-16T05:22:29;12.90;99.90
31695;DHT22;18289;51.330;4.946;2022-10-16T05:24:55;12.90;99.90
31695;DHT22;18289;51.330;4.946;2022-10-16T05:27:21;12.90;99.90
31695;DHT22;18289;51.330;4.946;2022-10-16T05:29:49;12.90;99.90
31695;DHT22;18289;51.330;4.946;2022-10-16T05:32:15;12.80;99.90
31695;DHT22;18289;51.330;4.946;2022-10-16T05:34:41;12.90;99.90
31695;DHT22;18289;51.330;4.946;2022-10-16T05:37:07;12.80;99.90
31695;DHT22;18289;51.330;4.946;2022-10-16T05:39:33;12.90;99.90
31695;DHT22;18289;51.330;4.946;2022-10-16T05:41:59;12.80;99.90
31695;DHT22;18289;51.330;4.946;2022-10-16T05:44:24;12.80;99.90
31695;DHT22;18289;51.330;4.946;2022-10-16T05:46:50;12.80;99.90
31695;DHT22;18289;51.330;4.946;2022-10-16T05:49:16;12.80;99.90
31695;DHT22;18289;51.330;4.946;2022-10-16T05:51:41;12.80;99.90
31695;DHT22;18289;51.330;4.946;2022-10-16T05:54:08;12.90;99.90
31695;DHT22;18289;51.330;4.946;2022-10-16T05:56:33;12.80;99.90
31695;DHT22;18289;51.330;4.946;2022-10-16T05:58:59;12.80;99.90
31695;DHT22;18289;51.330;4.946;2022-10-16T06:01:25;12.80;99.90
31695;DHT22;18289;51.330;4.946;2022-10-16T06:03:51;12.80;99.90
31695;DHT22;18289;51.330;4.946;2022-10-16T06:06:20;12.80;99.90
31695;DHT22;18289;51.330;4.946;2022-10-16T06:08:47;12.80;99.90
31695;DHT22;18289;51.330;4.946;2022-10-16T06:11:18;12.80;99.90
31695;DHT22;18289;51.330;4.946;2022-10-16T06:13:44;12.80;99.90
31695;DHT22;18289;51.330;4.946;2022-10-16T06:16:11;12.80;99.90
31695;DHT22;18289;51.330;4.946;2022-10-16T06:18:37;12.80;99.90
31695;DHT22;18289;51.330;4.946;2022-10-16T06:21:14;12.90;99.90
31695;DHT22;18289;51.330;4.946;2022-10-16T06:23:41;12.90;99.90
31695;DHT22;18289;51.330;4.946;2022-10-16T06:26:12;12.80;99.90
31695;DHT22;18289;51.330;4.946;2022-10-16T06:28:39;12.80;99.90
31695;DHT22;18289;51.330;4.946;2022-10-16T06:31:07;12.90;99.90
31695;DHT22;18289;51.330;4.946;2022-10-16T06:33:33;12.90;99.90
31695;DHT22;18289;51.330;4.946;2022-10-16T06:36:10;12.90;99.90
31695;DHT22;18289;51.330;4.946;2022-10-16T06:38:36;12.90;99.90
31695;DHT22;18289;51.330;4.946;2022-10-16T06:41:03;12.90;99.90
31695;DHT22;18289;51.330;4.946;2022-10-16T06:43:30;13.00;99.90
31695;DHT22;18289;51.330;4.946;2022-10-16T06:46:01;13.00;99.90
31695;DHT22;18289;51.330;4.946;2022-10-16T06:48:28;13.10;99.90
31695;DHT22;18289;51.330;4.946;2022-10-16T06:51:06;13.10;99.90
31695;DHT22;18289;51.330;4.946;2022-10-16T06:53:34;13.20;99.90
31695;DHT22;18289;51.330;4.946;2022-10-16T06:56:08;13.20;99.90
31695;DHT22;18289;51.330;4.946;2022-10-16T06:58:34;13.20;99.90
31695;DHT22;18289;51.330;4.946;2022-10-16T07:00:59;13.20;99.90
31695;DHT22;18289;51.330;4.946;2022-10-16T07:03:25;13.30;99.90
31695;DHT22;18289;51.330;4.946;2022-10-16T07:05:51;13.30;99.90
31695;DHT22;18289;51.330;4.946;2022-10-16T07:08:16;13.20;99.90
31695;DHT22;18289;51.330;4.946;2022-10-16T07:10:42;13.20;99.90
31695;DHT22;18289;51.330;4.946;2022-10-16T07:13:08;13.30;99.90
31695;DHT22;18289;51.330;4.946;2022-10-16T07:15:33;13.40;99.90
31695;DHT22;18289;51.330;4.946;2022-10-16T07:17:59;13.40;99.90
31695;DHT22;18289;51.330;4.946;2022-10-16T07:20:25;13.40;99.90
31695;DHT22;18289;51.330;4.946;2022-10-16T07:22:51;13.50;99.90
31695;DHT22;18289;51.330;4.946;2022-10-16T07:25:17;13.50;99.90
31695;DHT22;18289;51.330;4.946;2022-10-16T07:27:43;13.60;99.90
31695;DHT22;18289;51.330;4.946;2022-10-16T07:30:09;13.60;99.90
31695;DHT22;18289;51.330;4.946;2022-10-16T07:32:35;13.60;99.90
31695;DHT22;18289;51.330;4.946;2022-10-16T07:35:01;13.60;99.90
31695;DHT22;18289;51.330;4.946;2022-10-16T07:37:27;13.80;99.90
31695;DHT22;18289;51.330;4.946;2022-10-16T07:39:52;13.80;99.90
31695;DHT22;18289;51.330;4.946;2022-10-16T07:42:18;13.80;99.90
31695;DHT22;18289;51.330;4.946;2022-10-16T07:44:45;13.90;99.90
31695;DHT22;18289;51.330;4.946;2022-10-16T07:47:11;13.90;99.90
31695;DHT22;18289;51.330;4.946;2022-10-16T07:49:36;13.90;99.90
31695;DHT22;18289;51.330;4.946;2022-10-16T07:52:02;14.00;99.90
31695;DHT22;18289;51.330;4.946;2022-10-16T07:54:28;14.10;99.90
31695;DHT22;18289;51.330;4.946;2022-10-16T07:56:54;14.20;99.90
31695;DHT22;18289;51.330;4.946;2022-10-16T07:59:19;14.20;99.90
31695;DHT22;18289;51.330;4.946;2022-10-16T08:01:45;14.20;99.90
31695;DHT22;18289;51.330;4.946;2022-10-16T08:04:11;14.20;99.90
31695;DHT22;18289;51.330;4.946;2022-10-16T08:06:38;14.30;99.90
31695;DHT22;18289;51.330;4.946;2022-10-16T08:09:05;14.30;99.90
31695;DHT22;18289;51.330;4.946;2022-10-16T08:11:31;14.40;99.90
31695;DHT22;18289;51.330;4.946;2022-10-16T08:13:57;14.40;99.90
31695;DHT22;18289;51.330;4.946;2022-10-16T08:16:23;14.60;99.90
31695;DHT22;18289;51.330;4.946;2022-10-16T08:18:49;14.70;99.90
31695;DHT22;18289;51.330;4.946;2022-10-16T08:21:19;14.70;99.90
31695;DHT22;18289;51.330;4.946;2022-10-16T08:23:45;14.80;99.90
31695;DHT22;18289;51.330;4.946;2022-10-16T08:26:12;14.90;99.90
31695;DHT22;18289;51.330;4.946;2022-10-16T08:28:38;14.90;99.90
31695;DHT22;18289;51.330;4.946;2022-10-16T08:31:09;14.90;99.90
31695;DHT22;18289;51.330;4.946;2022-10-16T08:33:35;15.00;99.90
31695;DHT22;18289;51.330;4.946;2022-10-16T08:36:02;15.10;99.90
31695;DHT22;18289;51.330;4.946;2022-10-16T08:38:28;15.20;99.90
31695;DHT22;18289;51.330;4.946;2022-10-16T08:41:01;15.30;99.90
31695;DHT22;18289;51.330;4.946;2022-10-16T08:49:37;15.50;99.90
31695;DHT22;18289;51.330;4.946;2022-10-16T08:52:03;15.60;99.90
31695;DHT22;18289;51.330;4.946;2022-10-16T08:54:35;15.70;99.90
31695;DHT22;18289;51.330;4.946;2022-10-16T08:57:22;15.80;99.90
31695;DHT22;18289;51.330;4.946;2022-10-16T08:59:49;15.80;99.90
31695;DHT22;18289;51.330;4.946;2022-10-16T09:02:45;15.90;99.90
31695;DHT22;18289;51.330;4.946;2022-10-16T09:05:44;15.90;99.90
31695;DHT22;18289;51.330;4.946;2022-10-16T09:10:56;16.00;99.90
31695;DHT22;18289;51.330;4.946;2022-10-16T09:13:33;16.00;99.90
31695;DHT22;18289;51.330;4.946;2022-10-16T09:18:41;16.20;99.90
31695;DHT22;18289;51.330;4.946;2022-10-16T09:21:21;16.20;99.90
31695;DHT22;18289;51.330;4.946;2022-10-16T09:23:49;16.40;99.90
31695;DHT22;18289;51.330;4.946;2022-10-16T09:26:16;16.50;99.90
31695;DHT22;18289;51.330;4.946;2022-10-16T09:28:43;16.50;99.90
31695;DHT22;18289;51.330;4.946;2022-10-16T09:31:21;16.70;99.90
31695;DHT22;18289;51.330;4.946;2022-10-16T09:33:59;16.90;99.90
31695;DHT22;18289;51.330;4.946;2022-10-16T09:36:27;16.90;99.90
31695;DHT22;18289;51.330;4.946;2022-10-16T09:39:07;17.00;99.90
31695;DHT22;18289;51.330;4.946;2022-10-16T09:41:42;17.10;99.90
31695;DHT22;18289;51.330;4.946;2022-10-16T09:44:29;17.10;99.90
31695;DHT22;18289;51.330;4.946;2022-10-16T09:47:13;17.00;99.90
31695;DHT22;18289;51.330;4.946;2022-10-16T09:49:57;17.10;99.90
31695;DHT22;18289;51.330;4.946;2022-10-16T09:52:25;17.20;99.90
31695;DHT22;18289;51.330;4.946;2022-10-16T09:55:14;17.30;99.90
31695;DHT22;18289;51.330;4.946;2022-10-16T09:57:53;17.40;99.90
31695;DHT22;18289;51.330;4.946;2022-10-16T10:00:21;17.50;99.90
31695;DHT22;18289;51.330;4.946;2022-10-16T10:02:47;17.60;99.90
31695;DHT22;18289;51.330;4.946;2022-10-16T10:07:57;17.80;99.90
31695;DHT22;18289;51.330;4.946;2022-10-16T10:10:28;17.90;99.90
31695;DHT22;18289;51.330;4.946;2022-10-16T10:12:55;18.20;99.90
31695;DHT22;18289;51.330;4.946;2022-10-16T10:15:21;18.40;99.90
31695;DHT22;18289;51.330;4.946;2022-10-16T10:17:51;18.60;99.90
31695;DHT22;18289;51.330;4.946;2022-10-16T10:20:30;18.70;99.90
31695;DHT22;18289;51.330;4.946;2022-10-16T10:23:00;18.80;99.90
31695;DHT22;18289;51.330;4.946;2022-10-16T10:31:06;19.80;99.90
31695;DHT22;18289;51.330;4.946;2022-10-16T10:33:44;20.40;99.90
31695;DHT22;18289;51.330;4.946;2022-10-16T10:36:12;21.20;99.90
31695;DHT22;18289;51.330;4.946;2022-10-16T10:39:06;21.30;99.90
31695;DHT22;18289;51.330;4.946;2022-10-16T10:44:11;21.00;99.90
31695;DHT22;18289;51.330;4.946;2022-10-16T10:52:13;21.00;99.90
31695;DHT22;18289;51.330;4.946;2022-10-16T10:54:49;21.20;99.90
31695;DHT22;18289;51.330;4.946;2022-10-16T10:57:21;23.30;99.90
31695;DHT22;18289;51.330;4.946;2022-10-16T11:00:03;25.20;99.90
31695;DHT22;18289;51.330;4.946;2022-10-16T11:03:13;26.30;99.90
31695;DHT22;18289;51.330;4.946;2022-10-16T11:08:19;24.30;99.90
31695;DHT22;18289;51.330;4.946;2022-10-16T11:11:54;23.80;99.90
31695;DHT22;18289;51.330;4.946;2022-10-16T11:13:55;24.90;99.90
31695;DHT22;18289;51.330;4.946;2022-10-16T11:16:30;26.00;99.90
31695;DHT22;18289;51.330;4.946;2022-10-16T11:19:08;27.50;99.90
31695;DHT22;18289;51.330;4.946;2022-10-16T11:21:51;28.50;99.90
31695;DHT22;18289;51.330;4.946;2022-10-16T11:24:42;29.60;99.90
31695;DHT22;18289;51.330;4.946;2022-10-16T11:27:16;30.70;99.90
31695;DHT22;18289;51.330;4.946;2022-10-16T11:29:56;31.40;99.90
31695;DHT22;18289;51.330;4.946;2022-10-16T11:32:34;31.40;99.90
31695;DHT22;18289;51.330;4.946;2022-10-16T11:35:10;31.60;99.90
31695;DHT22;18289;51.330;4.946;2022-10-16T11:37:41;32.40;99.90
31695;DHT22;18289;51.330;4.946;2022-10-16T11:40:32;32.00;99.90
31695;DHT22;18289;51.330;4.946;2022-10-16T11:43:14;32.10;99.90
31695;DHT22;18289;51.330;4.946;2022-10-16T11:45:53;32.40;99.20
31695;DHT22;18289;51.330;4.946;2022-10-16T11:48:41;33.30;99.90
31695;DHT22;18289;51.330;4.946;2022-10-16T11:51:16;33.30;98.60
31695;DHT22;18289;51.330;4.946;2022-10-16T11:53:59;33.10;98.10
31695;DHT22;18289;51.330;4.946;2022-10-16T11:56:39;33.00;98.50
31695;DHT22;18289;51.330;4.946;2022-10-16T11:59:27;33.50;97.90
31695;DHT22;18289;51.330;4.946;2022-10-16T12:04:50;33.70;96.40
31695;DHT22;18289;51.330;4.946;2022-10-16T12:07:24;33.30;95.10
31695;DHT22;18289;51.330;4.946;2022-10-16T12:09:52;32.80;93.50
31695;DHT22;18289;51.330;4.946;2022-10-16T12:15:03;29.60;95.00
31695;DHT22;18289;51.330;4.946;2022-10-16T12:17:37;29.10;96.80
31695;DHT22;18289;51.330;4.946;2022-10-16T12:22:52;30.50;97.40
31695;DHT22;18289;51.330;4.946;2022-10-16T12:28:04;31.70;94.50
31695;DHT22;18289;51.330;4.946;2022-10-16T12:30:35;32.90;96.10
31695;DHT22;18289;51.330;4.946;2022-10-16T12:33:05;33.70;93.60
31695;DHT22;18289;51.330;4.946;2022-10-16T12:35:33;33.80;94.00
31695;DHT22;18289;51.330;4.946;2022-10-16T12:38:19;34.30;93.80
31695;DHT22;18289;51.330;4.946;2022-10-16T12:40:55;34.90;90.80
31695;DHT22;18289;51.330;4.946;2022-10-16T12:46:35;35.20;91.80
31695;DHT22;18289;51.330;4.946;2022-10-16T12:51:42;35.40;89.10
31695;DHT22;18289;51.330;4.946;2022-10-16T13:08:15;29.80;90.20
31695;DHT22;18289;51.330;4.946;2022-10-16T13:11:05;28.60;90.30
31695;DHT22;18289;51.330;4.946;2022-10-16T13:16:39;27.70;93.10
31695;DHT22;18289;51.330;4.946;2022-10-16T13:22:23;28.90;92.50
31695;DHT22;18289;51.330;4.946;2022-10-16T13:24:53;28.50;93.20
31695;DHT22;18289;51.330;4.946;2022-10-16T13:27:31;28.10;93.00
31695;DHT22;18289;51.330;4.946;2022-10-16T13:30:19;27.30;93.70
31695;DHT22;18289;51.330;4.946;2022-10-16T13:32:52;26.60;94.50
31695;DHT22;18289;51.330;4.946;2022-10-16T13:35:23;26.00;95.70
31695;DHT22;18289;51.330;4.946;2022-10-16T13:37:49;25.50;96.70
31695;DHT22;18289;51.330;4.946;2022-10-16T13:40:23;25.10;95.80
31695;DHT22;18289;51.330;4.946;2022-10-16T13:42:51;24.70;96.70
31695;DHT22;18289;51.330;4.946;2022-10-16T13:45:24;24.40;96.90
31695;DHT22;18289;51.330;4.946;2022-10-16T13:48:03;24.10;98.50
31695;DHT22;18289;51.330;4.946;2022-10-16T13:50:29;23.80;97.60
31695;DHT22;18289;51.330;4.946;2022-10-16T13:53:12;23.50;98.50
31695;DHT22;18289;51.330;4.946;2022-10-16T13:55:38;23.00;99.40
31695;DHT22;18289;51.330;4.946;2022-10-16T13:58:10;22.70;99.90
31695;DHT22;18289;51.330;4.946;2022-10-16T14:00:36;22.50;99.90
31695;DHT22;18289;51.330;4.946;2022-10-16T14:03:04;22.30;99.90
31695;DHT22;18289;51.330;4.946;2022-10-16T14:05:31;22.30;99.90
31695;DHT22;18289;51.330;4.946;2022-10-16T14:07:58;22.10;99.90
31695;DHT22;18289;51.330;4.946;2022-10-16T14:10:31;22.30;99.90
31695;DHT22;18289;51.330;4.946;2022-10-16T14:13:07;22.70;99.90
31695;DHT22;18289;51.330;4.946;2022-10-16T14:15:35;22.80;99.90
31695;DHT22;18289;51.330;4.946;2022-10-16T14:18:02;22.90;99.90
31695;DHT22;18289;51.330;4.946;2022-10-16T14:20:31;22.90;99.90
31695;DHT22;18289;51.330;4.946;2022-10-16T14:23:00;23.30;99.90
31695;DHT22;18289;51.330;4.946;2022-10-16T14:25:29;23.60;99.90
31695;DHT22;18289;51.330;4.946;2022-10-16T14:28:04;24.20;99.90
31695;DHT22;18289;51.330;4.946;2022-10-16T14:30:55;24.40;99.90
31695;DHT22;18289;51.330;4.946;2022-10-16T14:33:32;24.60;99.90
31695;DHT22;18289;51.330;4.946;2022-10-16T14:38:37;24.70;99.90
31695;DHT22;18289;51.330;4.946;2022-10-16T14:41:03;24.90;99.90
31695;DHT22;18289;51.330;4.946;2022-10-16T14:43:35;24.70;99.90
31695;DHT22;18289;51.330;4.946;2022-10-16T14:46:03;24.50;99.90
31695;DHT22;18289;51.330;4.946;2022-10-16T14:48:31;24.70;99.90
31695;DHT22;18289;51.330;4.946;2022-10-16T14:50:56;24.40;99.90
31695;DHT22;18289;51.330;4.946;2022-10-16T14:53:22;24.20;99.90
31695;DHT22;18289;51.330;4.946;2022-10-16T14:55:48;24.50;99.90
31695;DHT22;18289;51.330;4.946;2022-10-16T14:58:22;24.90;99.90
31695;DHT22;18289;51.330;4.946;2022-10-16T15:00:49;25.30;99.90
31695;DHT22;18289;51.330;4.946;2022-10-16T15:03:14;24.80;99.90
31695;DHT22;18289;51.330;4.946;2022-10-16T15:05:40;24.30;99.90
31695;DHT22;18289;51.330;4.946;2022-10-16T15:08:06;24.70;99.90
31695;DHT22;18289;51.330;4.946;2022-10-16T15:10:35;24.40;99.90
31695;DHT22;18289;51.330;4.946;2022-10-16T15:13:03;24.20;99.90
31695;DHT22;18289;51.330;4.946;2022-10-16T15:15:43;23.60;99.90
31695;DHT22;18289;51.330;4.946;2022-10-16T15:18:09;23.00;99.90
31695;DHT22;18289;51.330;4.946;2022-10-16T15:20:37;22.50;99.90
31695;DHT22;18289;51.330;4.946;2022-10-16T15:23:06;22.00;99.90
31695;DHT22;18289;51.330;4.946;2022-10-16T15:25:45;21.60;99.90
31695;DHT22;18289;51.330;4.946;2022-10-16T15:28:12;21.30;99.90
31695;DHT22;18289;51.330;4.946;2022-10-16T15:30:38;21.00;99.90
31695;DHT22;18289;51.330;4.946;2022-10-16T15:33:08;20.80;99.90
31695;DHT22;18289;51.330;4.946;2022-10-16T15:35:35;20.60;99.90
31695;DHT22;18289;51.330;4.946;2022-10-16T15:38:01;20.50;99.90
31695;DHT22;18289;51.330;4.946;2022-10-16T15:40:27;20.30;99.90
31695;DHT22;18289;51.330;4.946;2022-10-16T15:42:52;20.20;99.90
31695;DHT22;18289;51.330;4.946;2022-10-16T15:45:18;20.10;99.90
31695;DHT22;18289;51.330;4.946;2022-10-16T15:47:45;20.00;99.90
31695;DHT22;18289;51.330;4.946;2022-10-16T15:50:12;19.90;99.90
31695;DHT22;18289;51.330;4.946;2022-10-16T15:52:39;19.70;99.90
31695;DHT22;18289;51.330;4.946;2022-10-16T15:55:10;19.70;99.90
31695;DHT22;18289;51.330;4.946;2022-10-16T15:57:37;19.50;99.90
31695;DHT22;18289;51.330;4.946;2022-10-16T16:00:09;19.50;99.90
31695;DHT22;18289;51.330;4.946;2022-10-16T16:02:35;19.40;99.90
31695;DHT22;18289;51.330;4.946;2022-10-16T16:05:01;19.30;99.90
31695;DHT22;18289;51.330;4.946;2022-10-16T16:07:27;19.20;99.90
31695;DHT22;18289;51.330;4.946;2022-10-16T16:09:53;19.10;99.90
31695;DHT22;18289;51.330;4.946;2022-10-16T16:12:19;19.10;99.90
31695;DHT22;18289;51.330;4.946;2022-10-16T16:14:44;19.00;99.90
31695;DHT22;18289;51.330;4.946;2022-10-16T16:17:11;18.90;99.90
31695;DHT22;18289;51.330;4.946;2022-10-16T16:19:37;18.90;99.90
31695;DHT22;18289;51.330;4.946;2022-10-16T16:22:03;18.80;99.90
31695;DHT22;18289;51.330;4.946;2022-10-16T16:24:28;18.70;99.90
31695;DHT22;18289;51.330;4.946;2022-10-16T16:26:54;18.60;99.90
31695;DHT22;18289;51.330;4.946;2022-10-16T16:29:20;18.60;99.90
31695;DHT22;18289;51.330;4.946;2022-10-16T16:31:45;18.50;99.90
31695;DHT22;18289;51.330;4.946;2022-10-16T16:34:13;18.40;99.90
31695;DHT22;18289;51.330;4.946;2022-10-16T16:36:39;18.30;99.90
31695;DHT22;18289;51.330;4.946;2022-10-16T16:39:11;18.30;99.90
31695;DHT22;18289;51.330;4.946;2022-10-16T16:41:37;18.30;99.90
31695;DHT22;18289;51.330;4.946;2022-10-16T16:44:04;18.20;99.90
31695;DHT22;18289;51.330;4.946;2022-10-16T16:46:31;18.20;99.90
31695;DHT22;18289;51.330;4.946;2022-10-16T16:48:58;18.10;99.90
31695;DHT22;18289;51.330;4.946;2022-10-16T16:51:24;18.10;99.90
31695;DHT22;18289;51.330;4.946;2022-10-16T16:53:56;18.00;99.90
31695;DHT22;18289;51.330;4.946;2022-10-16T16:56:22;18.10;99.90
31695;DHT22;18289;51.330;4.946;2022-10-16T16:58:50;18.10;99.90
31695;DHT22;18289;51.330;4.946;2022-10-16T17:01:17;18.00;99.90
31695;DHT22;18289;51.330;4.946;2022-10-16T17:03:44;17.90;99.90
31695;DHT22;18289;51.330;4.946;2022-10-16T17:06:11;17.80;99.90
31695;DHT22;18289;51.330;4.946;2022-10-16T17:08:37;17.80;99.90
31695;DHT22;18289;51.330;4.946;2022-10-16T17:11:04;17.80;99.90
31695;DHT22;18289;51.330;4.946;2022-10-16T17:13:32;17.80;99.90